Time;durP1;ratioP1;P1;durP2;ratioP2;P2;SDS_P1;SDS_P2;PMS_P1;PMS_P2;Temp;Humidity;BMP_temperature;BMP_pressure;BME280_temperature;BME280_humidity;BME280_pressure;Samples;Min_cycle;Max_cycle;Signal;HPM_P1;HPM_P2
2022/07/12 00:01:31;;;;;;;4.27;2.83;;;16.10;1.00;;;16.07;63.86;101641.16;5040586;28;20524;-73
2022/07/12 00:04:05;;;;;;;4.60;2.80;;;16.00;1.00;;;15.86;65.11;101644.25;5052069;28;20435;-72
2022/07/12 00:06:34;;;;;;;4.20;3.07;;;15.90;1.00;;;15.92;64.92;101653.47;5051408;28;20848;-71
2022/07/12 00:09:03;;;;;;;4.63;2.60;;;15.90;1.00;;;15.84;65.16;101660.00;5044799;28;20868;-71
2022/07/12 00:11:32;;;;;;;5.33;3.73;;;15.90;1.00;;;16.01;64.75;101649.41;5052151;28;20919;-71
2022/07/12 00:14:01;;;;;;;7.70;3.43;;;15.80;1.00;;;16.34;64.07;101646.44;5051776;28;20455;-72
2022/07/12 00:16:30;;;;;;;4.07;2.97;;;15.90;1.00;;;16.13;64.10;101644.91;5041847;28;20419;-71
2022/07/12 00:18:59;;;;;;;4.30;1.90;;;16.10;1.00;;;15.62;65.27;101645.03;5044253;28;20402;-72
2022/07/12 00:21:29;;;;;;;3.90;2.67;;;15.80;1.00;;;15.27;66.74;101644.50;5045037;28;20880;-72
2022/07/12 00:23:58;;;;;;;3.93;2.73;;;15.50;1.00;;;15.25;67.12;101653.97;5040519;28;20935;-72
2022/07/12 00:26:27;;;;;;;6.43;3.20;;;15.40;1.00;;;15.30;67.09;101651.44;5051987;28;20954;-71
2022/07/12 00:28:57;;;;;;;8.60;2.00;;;15.40;1.00;;;15.31;66.71;101655.81;5031703;28;20414;-71
2022/07/12 00:31:26;;;;;;;4.33;2.30;;;15.40;1.00;;;15.11;67.45;101653.97;5049661;28;20489;-71
2022/07/12 00:33:55;;;;;;;3.83;2.87;;;15.30;1.00;;;14.99;68.14;101654.84;5038319;28;20418;-71
2022/07/12 00:36:24;;;;;;;4.87;2.13;;;15.10;1.00;;;15.05;67.93;101651.28;5042589;28;20432;-71
2022/07/12 00:38:56;;;;;;;3.87;2.40;;;15.10;1.00;;;15.06;67.68;101656.50;5047917;28;20482;-71
2022/07/12 00:41:25;;;;;;;2.97;2.27;;;15.10;1.00;;;14.97;68.07;101662.38;5052654;28;20467;-72
2022/07/12 00:43:54;;;;;;;3.73;2.63;;;15.00;1.00;;;14.88;68.50;101655.50;5052005;28;20402;-71
2022/07/12 00:46:24;;;;;;;5.03;2.30;;;14.90;1.00;;;15.02;67.93;101665.31;5055088;28;20484;-72
2022/07/12 00:48:55;;;;;;;4.57;2.50;;;15.00;1.00;;;14.99;67.93;101666.59;5055351;28;20419;-72
2022/07/12 00:51:25;;;;;;;5.83;2.50;;;15.00;1.00;;;15.27;67.64;101658.13;5055314;28;20802;-72
2022/07/12 00:53:59;;;;;;;4.20;2.53;;;15.00;1.00;;;15.27;67.42;101662.75;5051012;28;20527;-72
2022/07/12 00:56:29;;;;;;;4.70;2.07;;;15.10;1.00;;;15.45;66.77;101657.44;5046658;28;20773;-72
2022/07/12 00:58:57;;;;;;;10.33;3.27;;;15.20;1.00;;;15.14;67.26;101659.00;5050282;28;20459;-72
2022/07/12 01:01:28;;;;;;;2.67;1.93;;;15.10;1.00;;;14.94;67.85;101660.94;5047859;28;20528;-72
2022/07/12 01:03:57;;;;;;;6.47;3.47;;;15.00;1.00;;;14.77;68.85;101662.41;5050542;28;20430;-72
2022/07/12 01:06:27;;;;;;;6.67;2.90;;;14.80;1.00;;;15.02;68.29;101665.31;5045852;28;20406;-72
2022/07/12 01:08:58;;;;;;;3.17;2.40;;;14.90;1.00;;;15.18;67.64;101670.31;5045345;28;20796;-72
2022/07/12 01:11:27;;;;;;;3.10;2.13;;;15.00;1.00;;;15.68;66.22;101670.59;5081217;22;20469;-72
2022/07/12 01:13:57;;;;;;;3.90;2.23;;;15.30;1.00;;;15.77;65.78;101669.28;5049393;28;20851;-70
2022/07/12 01:16:27;;;;;;;7.03;2.47;;;15.40;1.00;;;15.20;66.32;101677.22;5050898;28;20456;-71
2022/07/12 01:18:56;;;;;;;4.27;2.70;;;15.30;1.00;;;15.10;67.48;101665.13;5044372;28;20394;-72
2022/07/12 01:21:31;;;;;;;3.77;2.30;;;15.20;1.00;;;14.71;68.38;101666.00;5035931;28;20443;-71
2022/07/12 01:24:03;;;;;;;3.20;2.87;;;14.90;1.00;;;14.83;68.41;101667.03;5039387;28;20437;-71
2022/07/12 01:26:32;;;;;;;4.50;2.70;;;14.90;1.00;;;14.78;68.35;101664.94;5047249;28;20410;-71
2022/07/12 01:29:01;;;;;;;2.30;2.10;;;14.90;1.00;;;14.69;69.15;101670.81;5044517;28;20498;-70
2022/07/12 01:31:30;;;;;;;4.07;2.10;;;14.70;1.00;;;14.59;69.55;101668.50;5041048;28;20810;-71
2022/07/12 01:34:00;;;;;;;4.77;2.63;;;14.70;1.00;;;14.59;69.22;101668.50;5050857;28;20489;-70
2022/07/12 01:36:30;;;;;;;5.83;3.00;;;14.60;1.00;;;14.74;68.32;101660.97;5051018;28;20968;-71
2022/07/12 01:38:59;;;;;;;4.27;2.83;;;14.80;1.00;;;15.18;67.06;101667.59;5050178;28;20888;-71
2022/07/12 01:41:29;;;;;;;2.80;2.27;;;14.90;1.00;;;15.23;66.94;101674.09;5050447;28;20467;-70
2022/07/12 01:43:58;;;;;;;2.27;2.07;;;15.00;1.00;;;15.67;65.72;101668.91;5046158;28;20477;-70
2022/07/12 01:46:28;;;;;;;2.87;2.57;;;15.30;1.00;;;15.78;64.79;101674.50;5049706;28;20439;-70
2022/07/12 01:48:57;;;;;;;5.70;2.70;;;15.50;1.00;;;15.43;65.60;101670.47;5045251;28;20521;-70
2022/07/12 01:51:27;;;;;;;2.10;1.87;;;15.40;1.00;;;15.17;66.44;101677.66;5045558;28;20428;-72
2022/07/12 01:53:56;;;;;;;3.20;1.90;;;15.30;1.00;;;14.88;67.19;101667.22;5042830;28;20541;-71
2022/07/12 01:56:25;;;;;;;2.17;1.80;;;15.10;1.00;;;14.66;68.22;101684.88;5043992;28;20965;-72
2022/07/12 01:58:56;;;;;;;4.67;2.43;;;14.90;1.00;;;14.48;68.93;101673.72;5051679;28;20442;-72
2022/07/12 02:01:26;;;;;;;2.50;2.30;;;14.70;1.00;;;14.21;69.97;101681.03;5052416;28;21053;-72
2022/07/12 02:03:55;;;;;;;2.40;1.90;;;14.40;1.00;;;13.88;70.96;101683.66;5044219;28;20962;-71
2022/07/12 02:06:26;;;;;;;4.57;2.17;;;14.10;28.60;;;13.68;71.67;101682.75;5048798;28;20446;-71
2022/07/12 02:08:55;;;;;;;3.97;1.80;;;13.90;99.90;;;13.62;72.17;101683.56;5051409;28;20406;-71
2022/07/12 02:11:25;;;;;;;2.60;1.90;;;13.80;99.90;;;13.76;72.12;101690.72;5055138;28;20435;-72
2022/07/12 02:13:55;;;;;;;2.80;1.77;;;13.90;99.90;;;14.28;71.16;101685.41;5041725;28;20439;-72
2022/07/12 02:16:24;;;;;;;2.57;1.70;;;14.00;99.90;;;14.48;70.33;101679.19;5052507;28;20443;-70
2022/07/12 02:18:53;;;;;;;2.63;2.30;;;14.20;99.90;;;14.75;68.35;101680.88;5051101;28;20489;-72
2022/07/12 02:21:22;;;;;;;4.23;2.30;;;14.40;99.90;;;14.82;68.18;101681.69;5043425;28;20463;-71
2022/07/12 02:23:52;;;;;;;3.60;1.47;;;14.60;99.90;;;14.60;68.90;101682.97;5035280;28;20948;-71
2022/07/12 02:26:21;;;;;;;2.23;1.70;;;14.50;99.90;;;14.22;68.81;101688.16;5040972;28;20434;-71
2022/07/12 02:28:50;;;;;;;2.33;1.87;;;14.40;99.90;;;14.01;69.91;101685.56;5052123;28;20471;-71
2022/07/12 02:31:21;;;;;;;3.63;2.23;;;14.10;99.90;;;14.69;68.16;101692.59;5045168;28;20439;-71
2022/07/12 02:33:50;;;;;;;2.50;2.17;;;14.50;99.90;;;14.66;68.19;101693.88;5034753;28;20472;-71
2022/07/12 02:36:19;;;;;;;2.30;1.67;;;14.50;99.90;;;14.79;67.30;101688.41;5049365;28;20406;-71
2022/07/12 02:38:49;;;;;;;3.07;1.67;;;14.60;99.90;;;14.26;68.13;101686.69;5046417;28;20443;-73
2022/07/12 02:41:18;;;;;;;2.80;2.13;;;14.40;98.70;;;13.86;69.58;101683.88;5045400;28;20442;-71
2022/07/12 02:43:47;;;;;;;6.00;1.80;;;14.10;99.90;;;14.03;69.41;101688.94;5038089;28;20486;-71
2022/07/12 02:46:16;;;;;;;3.43;1.67;;;14.10;99.90;;;13.80;69.62;101686.56;5047976;28;20419;-71
2022/07/12 02:48:47;;;;;;;1.67;1.40;;;13.90;99.90;;;13.85;70.42;101686.78;5029508;28;20820;-71
2022/07/12 02:51:16;;;;;;;1.87;1.67;;;13.90;99.90;;;14.07;68.27;101688.31;5051272;28;20550;-71
2022/07/12 02:53:45;;;;;;;3.10;1.77;;;14.00;99.90;;;14.64;68.17;101684.22;5051933;28;21160;-71
2022/07/12 02:56:14;;;;;;;3.37;2.17;;;14.20;99.90;;;14.86;66.38;101688.44;5052014;28;20451;-71
2022/07/12 02:58:43;;;;;;;3.10;1.90;;;14.60;99.80;;;14.61;66.68;101685.50;5049825;28;20431;-71
2022/07/12 03:01:13;;;;;;;3.23;2.57;;;14.50;97.90;;;14.21;68.20;101694.63;5047324;28;20834;-71
2022/07/12 03:03:42;;;;;;;3.30;1.70;;;14.30;98.40;;;14.15;67.95;101706.34;5035323;28;20485;-70
2022/07/12 03:06:13;;;;;;;3.60;1.80;;;14.20;99.10;;;14.13;69.34;101703.00;5044811;28;20437;-71
2022/07/12 03:08:43;;;;;;;3.67;1.93;;;14.10;99.90;;;13.99;68.97;101707.53;5043613;28;20455;-72
2022/07/12 03:11:12;;;;;;;3.60;2.30;;;14.10;99.90;;;13.99;69.13;101712.19;5046480;28;20448;-72
2022/07/12 03:13:41;;;;;;;3.00;1.70;;;14.00;99.90;;;13.97;69.27;101715.09;5039545;28;20452;-70
2022/07/12 03:16:10;;;;;;;2.63;1.93;;;14.00;99.90;;;14.08;69.30;101714.50;5044286;28;20434;-71
2022/07/12 03:18:41;;;;;;;2.20;1.67;;;13.90;99.90;;;14.27;69.42;101716.44;5049994;28;20427;-72
2022/07/12 03:21:12;;;;;;;4.13;2.00;;;14.00;99.90;;;14.12;68.85;101723.94;5049355;28;20427;-70
2022/07/12 03:23:43;;;;;;;2.97;2.27;;;14.10;99.90;;;14.70;67.36;101722.38;5037781;28;20480;-73
2022/07/12 03:26:12;;;;;;;3.83;1.70;;;14.40;99.90;;;14.82;67.49;101711.66;5042661;28;20402;-71
2022/07/12 03:28:41;;;;;;;2.63;1.70;;;14.50;99.90;;;14.55;68.11;101718.16;5049538;28;20427;-71
2022/07/12 03:31:10;;;;;;;5.73;1.87;;;14.40;99.90;;;14.58;68.13;101723.19;5049729;28;20431;-71
2022/07/12 03:33:40;;;;;;;2.60;1.90;;;14.50;99.90;;;14.53;68.65;101720.25;5049680;28;20427;-71
2022/07/12 03:36:09;;;;;;;7.23;1.70;;;14.40;99.90;;;14.83;68.53;101715.22;5038447;28;20428;-71
2022/07/12 03:38:39;;;;;;;3.80;1.50;;;14.50;99.90;;;15.22;66.87;101721.50;5046769;28;20919;-69
2022/07/12 03:41:09;;;;;;;2.33;1.70;;;14.90;99.90;;;15.42;66.46;101726.06;5049620;28;20522;-72
2022/07/12 03:43:38;;;;;;;2.00;1.47;;;15.00;99.80;;;15.93;64.51;101723.38;5046563;28;20467;-71
2022/07/12 03:46:07;;;;;;;3.50;1.60;;;15.40;96.60;;;17.18;61.13;101728.81;5043257;28;20829;-70
2022/07/12 03:48:36;;;;;;;2.53;1.73;;;15.90;92.20;;;18.57;56.84;101726.00;5046688;28;20433;-72
2022/07/12 03:51:05;;;;;;;2.17;1.37;;;16.50;1.00;;;19.55;53.67;101727.25;5043532;28;20532;-71
2022/07/12 03:53:35;;;;;;;4.43;1.53;;;17.50;1.00;;;20.22;51.91;101731.09;5042402;28;20495;-70
2022/07/12 03:56:07;;;;;;;3.30;2.30;;;18.00;1.00;;;21.07;49.96;101740.03;5044525;28;20436;-70
2022/07/12 03:58:37;;;;;;;2.13;1.73;;;18.60;1.00;;;21.22;49.51;101740.31;5048515;28;20467;-71
2022/07/12 04:01:07;;;;;;;3.03;1.70;;;18.80;38.10;;;21.53;47.94;101738.84;5042399;28;20434;-70
2022/07/12 04:03:36;;;;;;;3.60;1.60;;;18.90;36.10;;;21.81;46.71;101740.59;5042259;28;20678;-71
2022/07/12 04:06:06;;;;;;;1.90;1.70;;;19.30;31.10;;;21.58;47.69;101735.31;5048351;28;20420;-70
2022/07/12 04:08:35;;;;;;;2.00;1.77;;;19.40;28.60;;;22.04;44.80;101742.25;5043887;28;20497;-70
2022/07/12 04:11:07;;;;;;;2.37;2.17;;;19.90;24.30;;;22.13;44.46;101737.13;5041202;28;20444;-71
2022/07/12 04:13:36;;;;;;;1.93;1.67;;;20.10;22.50;;;22.56;43.49;101737.00;5046565;28;20457;-71
2022/07/12 04:16:06;;;;;;;2.50;1.77;;;20.10;21.10;;;22.72;43.77;101738.84;5050333;28;20398;-70
2022/07/12 04:18:35;;;;;;;2.27;1.50;;;20.20;20.60;;;22.54;42.90;101734.53;5048724;28;20959;-71
2022/07/12 04:21:04;;;;;;;3.30;2.00;;;20.40;18.40;;;23.32;41.49;101738.50;5052740;28;20799;-72
2022/07/12 04:23:33;;;;;;;2.77;2.00;;;20.80;17.00;;;23.47;42.01;101736.97;5048184;28;20541;-70
2022/07/12 04:26:02;;;;;;;5.47;1.60;;;20.60;16.80;;;23.94;40.65;101732.19;5050935;28;20854;-71
2022/07/12 04:28:33;;;;;;;1.77;1.43;;;20.70;16.20;;;24.03;39.81;101746.31;5052266;28;20468;-71
2022/07/12 04:31:02;;;;;;;3.97;1.47;;;21.10;14.30;;;23.62;40.57;101740.63;5051545;28;20767;-71
2022/07/12 04:33:31;;;;;;;2.50;1.90;;;21.40;12.90;;;23.18;41.08;101739.22;5030410;28;20988;-71
2022/07/12 04:36:00;;;;;;;2.87;1.63;;;21.30;12.20;;;23.90;40.54;101725.56;5053290;28;20463;-71
2022/07/12 04:38:30;;;;;;;3.50;1.87;;;21.50;12.40;;;24.15;39.07;101722.88;5055445;28;20968;-72
2022/07/12 04:40:59;;;;;;;1.73;1.07;;;21.50;11.60;;;24.56;38.17;101732.09;5056475;28;20431;-72
2022/07/12 04:43:28;;;;;;;2.63;2.27;;;21.70;10.00;;;25.05;38.15;101737.94;5054969;28;20470;-72
2022/07/12 04:46:07;;;;;;;2.00;1.73;;;22.20;9.80;;;25.09;37.51;101739.03;5054394;28;20431;-71
2022/07/12 04:48:36;;;;;;;3.03;1.37;;;22.50;8.80;;;24.96;37.49;101741.53;5054692;28;20496;-71
2022/07/12 04:51:05;;;;;;;1.97;1.17;;;22.30;7.70;;;24.24;38.37;101742.56;5056583;28;20417;-71
2022/07/12 04:53:35;;;;;;;6.30;1.93;;;22.00;7.70;;;24.64;38.02;101736.25;5047848;28;20456;-73
2022/07/12 04:56:04;;;;;;;1.97;1.30;;;22.30;8.30;;;24.82;38.17;101738.47;5050482;28;20438;-71
2022/07/12 04:58:33;;;;;;;2.93;1.60;;;22.40;8.00;;;25.39;36.51;101735.38;5049804;28;20432;-70
2022/07/12 05:01:04;;;;;;;2.27;1.50;;;22.70;5.80;;;24.96;36.79;101744.31;5048110;28;20423;-71
2022/07/12 05:03:33;;;;;;;2.40;1.30;;;22.70;4.80;;;25.11;36.25;101741.53;5043096;28;20486;-70
2022/07/12 05:06:03;;;;;;;5.53;1.40;;;23.00;4.80;;;25.86;35.10;101742.44;5039825;28;20522;-71
2022/07/12 05:08:34;;;;;;;4.00;1.00;;;23.20;3.90;;;25.26;36.08;101741.53;5016836;28;20414;-72
2022/07/12 05:11:03;;;;;;;2.93;1.40;;;23.30;3.70;;;25.89;35.29;101755.78;5049897;28;20716;-73
2022/07/12 05:13:32;;;;;;;2.60;1.43;;;23.20;3.80;;;26.54;34.89;101753.75;5042400;28;20566;-71
2022/07/12 05:16:03;;;;;;;2.63;1.67;;;23.30;3.90;;;27.23;33.64;101748.75;5030911;28;21036;-71
2022/07/12 05:18:32;;;;;;;1.60;1.20;;;23.50;3.00;;;26.51;33.23;101754.34;5056084;28;20448;-72
2022/07/12 05:21:02;;;;;;;3.10;1.27;;;23.60;1.40;;;25.34;35.36;101757.56;5054598;28;20457;-70
2022/07/12 05:23:31;;;;;;;1.40;0.77;;;23.50;1.20;;;25.92;34.87;101758.78;5062540;28;20493;-71
2022/07/12 05:26:00;;;;;;;2.87;1.63;;;23.20;1.90;;;26.62;34.11;101753.16;5053036;28;20437;-71
2022/07/12 05:28:29;;;;;;;2.63;1.23;;;23.50;2.20;;;27.67;32.67;101756.94;5048170;28;20469;-71
2022/07/12 05:30:58;;;;;;;3.13;1.10;;;23.80;1.80;;;26.75;32.67;101760.81;5036312;28;20448;-72
2022/07/12 05:33:29;;;;;;;2.57;1.20;;;24.30;1.00;;;25.95;34.39;101763.75;5042403;28;20451;-71
2022/07/12 05:35:59;;;;;;;4.20;1.60;;;24.10;1.00;;;26.29;33.73;101758.34;5044110;28;20501;-71
2022/07/12 05:38:28;;;;;;;2.60;1.40;;;24.10;1.00;;;25.25;34.63;101753.69;5046006;28;20443;-70
2022/07/12 05:40:57;;;;;;;2.23;1.43;;;23.80;1.00;;;22.42;38.67;101763.34;5037828;28;20866;-71
2022/07/12 05:43:26;;;;;;;2.23;1.40;;;22.50;1.00;;;21.39;42.35;101767.84;5040318;28;20562;-70
2022/07/12 05:45:56;;;;;;;2.10;1.20;;;21.30;3.70;;;20.32;43.61;101765.16;5018061;28;20785;-71
2022/07/12 05:48:26;;;;;;;2.03;1.67;;;20.60;4.40;;;19.45;45.89;101761.66;5031669;28;20410;-72
2022/07/12 05:53:21;;;;;;;5.23;1.63;;;19.80;6.30;;;19.22;47.41;101769.03;5032139;28;20441;-70
2022/07/12 05:53:45;;;;;;;2.13;1.07;;;19.30;8.20;;;19.12;47.31;101769.63;5018280;28;20841;-70
2022/07/12 05:56:14;;;;;;;3.00;1.10;;;19.10;8.90;;;18.91;48.20;101764.69;5017672;28;20447;-71
2022/07/12 05:58:43;;;;;;;3.10;1.03;;;18.90;9.50;;;18.98;48.77;101776.38;5029861;28;20433;-71
2022/07/12 06:01:12;;;;;;;1.80;1.10;;;18.80;11.00;;;18.75;48.98;101779.06;5035475;28;20428;-71
2022/07/12 06:03:41;;;;;;;3.43;1.30;;;18.70;11.00;;;18.82;48.77;101780.66;5037099;28;20475;-71
2022/07/12 06:06:12;;;;;;;1.50;0.87;;;18.70;11.30;;;18.65;48.87;101779.66;5040643;28;20398;-71
2022/07/12 06:08:41;;;;;;;4.37;1.30;;;18.60;11.40;;;18.59;49.53;101786.91;5037803;28;20498;-71
2022/07/12 06:11:10;;;;;;;2.13;1.10;;;18.50;12.30;;;18.77;49.57;101783.28;5030471;28;20451;-71
2022/07/12 06:13:39;;;;;;;2.33;1.33;;;18.60;13.00;;;18.81;49.19;101783.63;5032093;28;20448;-71
2022/07/12 06:16:10;;;;;;;2.37;1.17;;;18.60;12.60;;;18.89;49.21;101788.75;5036392;28;20402;-71
2022/07/12 06:18:39;;;;;;;2.30;1.00;;;18.70;12.70;;;18.57;49.72;101788.22;5040917;28;20435;-70
2022/07/12 06:21:09;;;;;;;2.20;1.57;;;18.60;12.70;;;18.81;50.15;101789.13;5016497;28;20537;-71
2022/07/12 06:23:39;;;;;;;2.63;1.60;;;18.60;13.90;;;19.08;49.75;101790.34;5037478;28;20438;-70
2022/07/12 06:26:08;;;;;;;2.47;1.10;;;18.80;13.80;;;19.02;49.37;101788.56;5038555;28;20459;-73
2022/07/12 06:28:37;;;;;;;1.70;1.10;;;18.80;13.50;;;18.95;49.72;101790.56;5035903;28;20431;-71
2022/07/12 06:31:07;;;;;;;2.40;1.20;;;18.80;13.60;;;19.03;49.77;101790.22;5038107;28;20433;-70
2022/07/12 06:33:36;;;;;;;1.90;1.30;;;18.80;13.90;;;19.14;49.22;101788.56;5041319;28;20525;-73
2022/07/12 06:36:05;;;;;;;1.60;1.00;;;19.00;13.70;;;19.37;49.17;101789.41;5016813;28;20506;-71
2022/07/12 06:38:35;;;;;;;1.83;1.10;;;19.10;13.90;;;19.17;49.24;101790.84;5032664;28;20395;-71
2022/07/12 06:41:14;;;;;;;3.03;0.87;;;19.10;13.40;;;19.08;49.64;101790.34;5027687;28;20408;-72
2022/07/12 06:43:43;;;;;;;3.00;1.13;;;19.00;13.50;;;19.14;49.54;101789.41;5028926;28;20475;-71
2022/07/12 06:46:12;;;;;;;4.30;1.20;;;19.00;13.80;;;19.20;48.93;101793.94;5014382;28;20447;-72
2022/07/12 06:48:41;;;;;;;2.27;1.47;;;19.10;13.90;;;19.44;48.76;101779.19;5028922;28;20446;-72
2022/07/12 06:51:11;;;;;;;1.93;1.10;;;19.20;13.60;;;19.66;47.80;101773.06;5029236;28;20432;-71
2022/07/12 06:53:40;;;;;;;2.53;1.30;;;19.40;12.70;;;19.70;47.82;101769.63;5029816;28;20456;-70
2022/07/12 06:56:09;;;;;;;3.60;1.03;;;19.50;12.60;;;19.81;47.59;101776.16;5060595;23;20494;-73
2022/07/12 06:58:40;;;;;;;3.53;1.60;;;19.60;12.50;;;19.87;47.98;101772.44;5076908;28;20892;-72
2022/07/12 07:01:09;;;;;;;2.03;1.10;;;19.70;12.50;;;20.15;46.95;101772.47;5078027;28;20859;-72
2022/07/12 07:03:39;;;;;;;3.13;1.00;;;19.90;12.20;;;20.08;47.51;101773.69;5074951;28;20413;-72
2022/07/12 07:06:08;;;;;;;1.93;1.13;;;19.90;12.10;;;20.19;47.74;101776.38;5071984;28;20401;-72
2022/07/12 07:08:49;;;;;;;1.57;1.40;;;20.00;12.50;;;20.51;46.47;101774.03;5071767;28;20458;-70
2022/07/12 07:11:19;;;;;;;2.63;2.00;;;20.20;11.70;;;20.63;46.59;101771.19;4994677;28;20670;-72
2022/07/12 07:13:49;;;;;;;4.63;1.20;;;20.40;11.80;;;20.65;46.61;101769.88;4991720;28;20514;-72
2022/07/12 07:16:23;;;;;;;2.50;1.60;;;20.50;11.70;;;20.79;46.64;101771.22;4995348;28;20446;-72
2022/07/12 07:18:53;;;;;;;2.30;1.27;;;20.60;11.70;;;20.82;46.27;101773.47;4991291;28;20494;-73
2022/07/12 07:21:22;;;;;;;3.77;2.00;;;20.70;11.50;;;20.78;46.62;101764.06;4983660;28;20531;-72
2022/07/12 07:23:51;;;;;;;1.90;1.40;;;20.60;11.60;;;20.98;46.09;101774.56;4990187;28;20439;-72
2022/07/12 07:26:21;;;;;;;1.43;1.00;;;20.80;11.10;;;20.85;45.97;101771.31;4989516;28;20412;-71
2022/07/12 07:31:39;;;;;;;5.77;1.10;;;20.80;10.90;;;21.21;45.76;101774.44;4989332;28;20890;-71
2022/07/12 07:34:08;;;;;;;2.83;1.20;;;21.00;11.10;;;21.06;45.55;101763.13;4986809;28;20533;-73
2022/07/12 07:36:38;;;;;;;4.10;1.50;;;20.90;10.40;;;21.12;45.55;101766.81;4989204;28;20429;-71
2022/07/12 07:39:07;;;;;;;1.90;1.47;;;21.00;10.40;;;21.09;46.39;101765.41;4989504;28;20565;-71
2022/07/12 07:41:36;;;;;;;4.40;1.20;;;21.00;10.60;;;21.11;46.38;101756.88;4989951;28;20770;-72
2022/07/12 07:44:06;;;;;;;1.67;1.03;;;21.00;10.90;;;21.23;45.47;101760.41;4989322;28;20447;-72
2022/07/12 07:46:36;;;;;;;3.30;1.17;;;21.10;10.40;;;21.49;45.40;101761.63;4989156;28;20931;-73
2022/07/12 07:49:05;;;;;;;3.93;1.40;;;21.20;10.40;;;21.79;45.26;101759.28;4991218;28;20517;-72
2022/07/12 07:51:34;;;;;;;2.37;1.13;;;21.50;10.30;;;21.79;43.91;101762.03;4991177;28;20412;-72
2022/07/12 07:54:04;;;;;;;2.17;1.00;;;21.60;8.90;;;21.59;43.88;101756.28;4994780;28;20537;-73
2022/07/12 07:56:33;;;;;;;3.50;1.27;;;21.60;8.10;;;21.71;44.24;101754.22;4993309;28;20438;-71
2022/07/12 07:59:02;;;;;;;2.37;1.03;;;21.60;8.60;;;21.92;43.85;101756.16;4982849;28;20408;-72
2022/07/12 08:01:46;;;;;;;1.50;1.10;;;21.70;8.60;;;22.05;43.30;101764.06;4983176;28;20461;-71
2022/07/12 08:04:17;;;;;;;2.63;2.40;;;21.80;8.00;;;22.27;43.07;101760.47;4985248;28;20441;-71
2022/07/12 08:06:50;;;;;;;2.53;1.10;;;22.00;8.00;;;22.29;43.25;101758.25;4989345;28;20440;-73
2022/07/12 08:09:19;;;;;;;1.43;1.00;;;22.00;7.80;;;22.28;43.35;101762.09;4989185;28;20448;-71
2022/07/12 08:11:48;;;;;;;1.80;0.83;;;22.10;7.70;;;22.48;42.96;101762.31;5002947;28;20422;-74
2022/07/12 08:14:17;;;;;;;4.00;1.40;;;22.30;7.60;;;22.05;42.78;101758.56;5005168;28;20466;-72
2022/07/12 08:16:48;;;;;;;1.43;1.00;;;22.10;6.80;;;22.25;42.74;101757.13;5000858;28;20408;-73
2022/07/12 08:19:18;;;;;;;1.77;1.20;;;22.10;6.90;;;22.58;42.14;101750.56;5007183;28;20759;-72
2022/07/12 08:21:47;;;;;;;2.90;1.00;;;22.30;6.60;;;22.59;41.47;101758.56;5006155;28;20469;-71
2022/07/12 08:24:16;;;;;;;2.93;1.07;;;22.40;5.70;;;22.29;42.18;101766.53;5005685;28;20437;-73
2022/07/12 08:26:45;;;;;;;5.93;1.30;;;22.20;6.00;;;22.37;42.54;101760.53;5008406;28;20451;-72
2022/07/12 08:29:15;;;;;;;2.33;0.90;;;22.20;6.50;;;22.58;42.91;101758.81;5012694;28;20782;-72
2022/07/12 08:31:44;;;;;;;1.50;0.97;;;22.30;7.00;;;22.76;41.94;101759.31;5009763;28;20407;-72
2022/07/12 08:34:14;;;;;;;1.70;0.97;;;22.50;6.00;;;22.89;40.20;101753.38;5008758;28;20419;-72
2022/07/12 08:36:44;;;;;;;2.00;1.20;;;22.60;4.40;;;22.67;39.98;101754.50;5006446;28;20446;-74
2022/07/12 08:39:13;;;;;;;3.10;1.27;;;22.60;3.60;;;22.97;40.27;101757.56;5001581;28;20511;-74
2022/07/12 08:41:42;;;;;;;2.90;0.80;;;22.70;3.80;;;22.97;39.63;101749.28;5009301;28;20404;-72
2022/07/12 08:44:11;;;;;;;1.60;0.90;;;22.80;3.00;;;22.90;39.63;101743.97;5003702;28;20411;-73
2022/07/12 08:46:41;;;;;;;3.20;1.17;;;22.80;3.00;;;23.13;39.14;101742.78;5022653;28;20443;-74
2022/07/12 08:49:10;;;;;;;4.20;1.17;;;22.90;2.50;;;23.19;39.53;101741.69;5024520;28;20423;-73
2022/07/12 08:51:41;;;;;;;1.37;0.90;;;23.00;3.10;;;23.17;39.31;101752.19;5009371;28;20776;-73
2022/07/12 08:54:13;;;;;;;3.00;1.00;;;23.00;2.50;;;23.19;39.53;101752.75;5002017;28;20495;-73
2022/07/12 08:56:44;;;;;;;1.57;0.97;;;23.10;2.80;;;23.05;39.89;101759.00;5008375;28;20435;-73
2022/07/12 08:59:16;;;;;;;2.67;1.30;;;23.00;3.00;;;23.18;40.11;101755.78;5004320;28;20432;-73
2022/07/12 09:01:49;;;;;;;1.30;0.80;;;23.00;3.10;;;23.14;40.38;101762.94;5013754;28;20433;-73
2022/07/12 09:04:22;;;;;;;1.50;0.80;;;23.00;3.50;;;23.47;40.37;101762.66;5010975;28;20837;-73
2022/07/12 09:06:54;;;;;;;1.47;0.80;;;23.20;3.80;;;22.85;39.92;101757.72;5012703;28;20456;-72
2022/07/12 09:09:31;;;;;;;3.30;1.20;;;22.80;2.60;;;23.09;40.63;101754.63;5028422;28;20476;-74
2022/07/12 09:12:01;;;;;;;1.50;0.80;;;22.90;3.50;;;23.16;40.62;101757.97;5001460;28;20460;-72
2022/07/12 09:14:31;;;;;;;3.43;1.00;;;22.90;3.60;;;22.96;40.85;101759.50;5006861;28;20403;-72
2022/07/12 09:17:02;;;;;;;2.67;1.10;;;22.80;3.60;;;22.87;41.46;101744.50;5007675;28;21010;-74
2022/07/12 09:19:32;;;;;;;1.43;0.77;;;22.70;4.30;;;22.83;42.07;101748.91;5004042;28;20412;-73
2022/07/12 09:22:03;;;;;;;1.30;0.70;;;22.70;4.80;;;23.09;42.18;101746.34;5006528;28;20548;-73
2022/07/12 09:24:32;;;;;;;2.30;1.50;;;22.80;5.60;;;23.14;41.81;101744.44;5025417;28;20419;-72
2022/07/12 09:27:03;;;;;;;2.47;1.20;;;22.90;5.20;;;23.53;41.43;101731.16;5007180;28;20536;-73
2022/07/12 09:29:34;;;;;;;2.20;0.97;;;23.20;5.30;;;24.04;40.76;101732.22;5005143;28;20470;-73
2022/07/12 09:37:47;;;;;;;3.17;1.13;;;23.80;2.70;;;24.41;39.50;101732.06;5003389;28;20438;-73
2022/07/12 09:40:16;;;;;;;4.27;1.60;;;24.10;2.90;;;24.16;39.33;101729.22;5008748;28;20488;-73
2022/07/12 09:42:46;;;;;;;2.40;1.13;;;24.00;2.50;;;24.30;39.94;101735.94;5026440;28;20991;-71
2022/07/12 09:45:18;;;;;;;1.73;1.13;;;24.10;3.20;;;23.92;39.33;101728.84;5011454;28;21248;-72
2022/07/12 09:47:50;;;;;;;5.37;1.20;;;23.80;2.10;;;23.95;40.01;101735.78;5006162;28;20437;-73
2022/07/12 09:50:20;;;;;;;1.53;1.00;;;23.80;2.80;;;23.80;39.83;101734.63;5009189;28;20437;-73
2022/07/12 09:52:55;;;;;;;2.70;1.37;;;23.70;2.40;;;24.14;38.04;101736.97;5011182;28;20459;-72
2022/07/12 09:55:30;;;;;;;4.60;1.53;;;23.80;1.00;;;24.25;38.15;101738.69;5003358;28;20436;-73
2022/07/12 09:58:04;;;;;;;1.37;0.93;;;23.90;1.00;;;24.46;37.16;101726.53;5004875;28;20421;-73
2022/07/12 10:00:36;;;;;;;1.90;1.00;;;24.10;1.00;;;24.44;37.13;101726.00;5008914;28;20445;-72
2022/07/12 10:03:07;;;;;;;1.80;0.90;;;24.20;1.00;;;24.38;36.71;101729.84;5005160;28;20548;-74
2022/07/12 10:05:39;;;;;;;1.97;1.30;;;24.20;1.00;;;24.15;35.47;101738.63;5010205;28;20472;-72
2022/07/12 10:08:10;;;;;;;4.37;1.40;;;24.10;1.00;;;24.15;36.48;101738.63;5006945;28;20499;-73
2022/07/12 10:10:40;;;;;;;1.60;1.00;;;24.00;1.00;;;24.21;36.81;101738.38;5007424;28;20444;-74
2022/07/12 10:13:10;;;;;;;1.20;0.80;;;24.00;1.00;;;24.03;36.64;101735.25;5005865;28;20468;-73
2022/07/12 10:15:43;;;;;;;1.47;0.80;;;23.90;1.00;;;24.30;36.74;101735.09;5004291;28;20429;-73
2022/07/12 10:18:20;;;;;;;1.67;1.03;;;24.00;1.00;;;24.63;35.49;101735.44;5010296;28;20445;-73
2022/07/12 10:20:50;;;;;;;2.13;1.00;;;24.30;1.00;;;24.86;35.92;101733.22;5000593;28;20475;-72
2022/07/12 10:23:35;;;;;;;1.83;1.00;;;24.50;1.00;;;24.46;36.15;101732.06;5006850;28;20802;-74
2022/07/12 10:26:41;;;;;;;1.90;0.90;;;24.30;1.00;;;24.92;35.77;101735.75;5011107;28;20473;-72
2022/07/12 10:29:10;;;;;;;1.43;0.83;;;24.50;1.00;;;24.74;36.00;101729.91;5011915;28;20435;-73
2022/07/12 10:31:41;;;;;;;2.97;0.80;;;24.50;1.00;;;24.78;35.83;101725.47;5027573;28;20445;-72
2022/07/12 10:34:21;;;;;;;1.43;0.90;;;24.50;1.00;;;24.90;35.68;101729.63;5010309;28;20861;-72
2022/07/12 10:37:11;;;;;;;1.40;0.80;;;24.70;1.00;;;25.59;34.90;101726.22;5011492;28;20425;-73